Time;durP1;ratioP1;P1;durP2;ratioP2;P2;SDS_P1;SDS_P2;PMS_P1;PMS_P2;Temp;Humidity;BMP_temperature;BMP_pressure;BME280_temperature;BME280_humidity;BME280_pressure;Samples;Min_cycle;Max_cycle;Signal;HPM_P1;HPM_P2
2023/09/12 00:01:36;;;;;;;18.60;13.40;;;;;;;19.18;65.82;100761.78;15840881;28;20044;-48
2023/09/12 00:09:10;;;;;;;16.67;13.00;;;;;;;19.16;65.77;100757.66;15783836;28;20060;-47
2023/09/12 00:16:46;;;;;;;16.75;13.15;;;;;;;19.14;65.35;100771.53;15783923;28;20040;-45
2023/09/12 00:24:20;;;;;;;15.73;12.77;;;;;;;18.98;65.42;100767.97;15800126;28;20119;-45
2023/09/12 00:31:53;;;;;;;18.50;13.25;;;;;;;18.91;65.93;100767.38;15800300;28;20038;-45
2023/09/12 00:39:27;;;;;;;;;;;;;;;18.76;66.78;100762.69;15854085;28;20082;-46
2023/09/12 00:47:02;;;;;;;17.13;13.07;;;;;;;18.76;66.25;100762.69;15844235;28;20273;-46
2023/09/12 00:54:36;;;;;;;22.50;13.63;;;;;;;18.66;66.79;100759.06;15788731;28;20401;-47
2023/09/12 01:02:09;;;;;;;16.63;12.93;;;;;;;18.58;66.78;100766.63;15763982;28;20044;-49
2023/09/12 01:09:44;;;;;;;19.02;12.82;;;;;;;18.51;66.54;100754.31;15781863;28;20405;-48
2023/09/12 01:17:18;;;;;;;19.00;13.93;;;;;;;18.43;66.54;100763.00;15849410;28;20039;-50
2023/09/12 01:25:13;;;;;;;17.15;14.25;;;;;;;18.29;67.33;100754.47;15842130;28;20043;-45
2023/09/12 01:32:48;;;;;;;17.70;14.35;;;;;;;18.26;67.06;100763.97;15859844;28;20287;-46
2023/09/12 01:40:31;;;;;;;19.20;14.57;;;;;;;18.18;67.56;100759.00;15839748;28;20351;-49
2023/09/12 01:48:08;;;;;;;17.60;13.98;;;;;;;18.12;67.35;100754.63;15858731;28;20158;-49
2023/09/12 01:55:42;;;;;;;19.42;14.57;;;;;;;18.03;67.60;100751.56;15857566;28;20040;-46
2023/09/12 02:03:17;;;;;;;18.50;14.52;;;;;;;18.03;67.32;100745.31;15840622;28;20036;-48
2023/09/12 02:10:50;;;;;;;19.92;15.40;;;;;;;17.99;67.70;100741.47;15839769;28;20112;-47
2023/09/12 02:18:26;;;;;;;17.52;14.43;;;;;;;17.91;68.08;100737.34;15829977;28;20044;-48
2023/09/12 02:25:59;;;;;;;18.00;14.57;;;;;;;17.89;67.87;100735.97;15839979;28;20061;-47
2023/09/12 02:33:46;;;;;;;17.52;14.32;;;;;;;17.87;68.25;100740.84;15842385;28;20046;-52
2023/09/12 02:41:19;;;;;;;15.50;13.80;;;;;;;17.80;68.29;100731.00;15793979;28;20423;-47
2023/09/12 02:48:53;;;;;;;;;;;;;;;17.81;68.23;100731.81;15846072;28;20036;-50
2023/09/12 02:56:27;;;;;;;23.10;14.82;;;;;;;17.81;68.13;100726.38;15831204;28;20269;-54
2023/09/12 03:04:06;;;;;;;17.15;14.20;;;;;;;17.74;68.44;100728.50;15831819;28;20053;-48
2023/09/12 03:11:39;;;;;;;18.42;14.60;;;;;;;17.62;68.60;100715.06;15845576;28;20112;-50
2023/09/12 03:19:14;;;;;;;17.50;14.43;;;;;;;17.50;69.21;100715.22;15771228;28;20054;-50
2023/09/12 03:26:47;;;;;;;18.58;14.93;;;;;;;17.36;69.35;100713.19;15785630;28;20032;-51
2023/09/12 03:34:27;;;;;;;18.23;13.63;;;;;;;17.43;68.82;100719.22;15822610;28;20042;-52
2023/09/12 03:42:01;;;;;;;18.65;14.07;;;;;;;17.26;69.69;100733.72;15848240;28;20044;-51
2023/09/12 03:49:36;;;;;;;17.52;14.63;;;;;;;17.23;69.45;100736.09;15864327;28;20512;-53
2023/09/12 03:57:09;;;;;;;19.20;14.40;;;;;;;17.17;69.31;100735.22;15847288;28;20044;-48
2023/09/12 04:04:44;;;;;;;;;;;;;;;17.15;69.35;100745.50;15866165;28;20040;-54
2023/09/12 04:12:17;;;;;;;20.95;15.63;;;;;;;17.04;69.42;100733.72;15837585;28;19927;-52
2023/09/12 04:19:51;;;;;;;16.77;13.88;;;;;;;17.11;69.05;100722.66;15767129;28;20044;-50
2023/09/12 04:27:25;;;;;;;23.77;16.13;;;;;;;17.13;68.95;100727.84;15765867;28;20044;-52
2023/09/12 04:35:00;;;;;;;23.88;16.70;;;;;;;17.19;68.91;100721.41;15782046;28;20024;-51
2023/09/12 04:42:36;;;;;;;18.95;16.10;;;;;;;17.23;68.76;100734.19;15792887;28;20036;-49
2023/09/12 04:50:16;;;;;;;21.98;15.82;;;;;;;17.16;68.94;100736.31;15847336;28;20035;-50
2023/09/12 04:57:51;;;;;;;17.05;15.13;;;;;;;16.92;69.91;100737.63;15843397;28;20042;-48
2023/09/12 05:05:25;;;;;;;17.02;14.40;;;;;;;17.13;69.51;100747.66;15844254;28;20100;-48
2023/09/12 05:12:59;;;;;;;21.15;15.95;;;;;;;17.40;68.15;100744.16;15828307;28;20061;-50
2023/09/12 05:20:33;;;;;;;19.60;15.93;;;;;;;17.56;68.52;100754.09;15811755;28;20038;-46
2023/09/12 05:28:07;;;;;;;21.77;16.63;;;;;;;17.88;67.81;100756.06;15827230;28;20040;-51
2023/09/12 05:35:41;;;;;;;21.63;16.77;;;;;;;18.17;67.87;100764.69;15834501;28;20027;-48
2023/09/12 05:43:14;;;;;;;22.08;16.58;;;;;;;18.49;66.79;100767.38;15842177;28;20131;-49
2023/09/12 05:50:49;;;;;;;24.25;15.23;;;;;;;18.64;66.64;100777.53;15839743;28;20516;-52
2023/09/12 05:58:23;;;;;;;21.15;15.20;;;;;;;19.00;66.36;100775.84;15841802;28;20123;-51
2023/09/12 06:05:59;;;;;;;27.00;15.52;;;;;;;19.26;64.88;100780.31;15841394;28;20499;-48
2023/09/12 06:13:32;;;;;;;27.42;14.50;;;;;;;19.44;63.86;100783.59;15839875;28;20032;-51
2023/09/12 06:21:08;;;;;;;27.77;14.27;;;;;;;19.62;63.45;100773.06;15797815;28;20098;-48
2023/09/12 06:28:41;;;;;;;37.38;14.52;;;;;;;19.97;62.95;100792.47;15808471;28;20040;-52
2023/09/12 06:36:16;;;;;;;32.35;13.38;;;;;;;20.57;61.39;100799.81;15807285;28;20349;-46
2023/09/12 06:43:49;;;;;;;28.30;13.65;;;;;;;21.19;60.65;100789.53;15807088;28;20069;-52
2023/09/12 06:51:26;;;;;;;19.23;12.68;;;;;;;20.79;59.72;100795.94;15788715;28;20047;-52
2023/09/12 06:59:01;;;;;;;16.88;12.43;;;;;;;21.44;58.80;100810.47;15805727;28;20059;-49
2023/09/12 07:06:35;;;;;;;14.93;12.25;;;;;;;22.31;57.62;100813.44;15861790;28;20517;-54
2023/09/12 07:14:09;;;;;;;18.13;10.32;;;;;;;22.14;57.23;100815.78;15826012;28;20177;-48
2023/09/12 07:21:44;;;;;;;21.17;10.13;;;;;;;23.64;55.24;100801.03;15804896;28;20051;-54
2023/09/12 07:29:16;;;;;;;17.90;9.70;;;;;;;23.76;53.73;100795.91;15804797;28;20487;-54
2023/09/12 07:36:53;;;;;;;20.15;9.43;;;;;;;24.63;52.07;100797.25;15803545;28;20044;-54
2023/09/12 07:44:29;;;;;;;13.93;8.63;;;;;;;25.35;51.37;100786.44;15804700;28;20042;-52
2023/09/12 07:52:04;;;;;;;21.27;9.52;;;;;;;25.74;49.62;100796.03;15803156;28;20123;-51
2023/09/12 07:59:37;;;;;;;17.65;8.18;;;;;;;25.72;50.25;100808.47;15802049;28;20040;-52
2023/09/12 08:07:11;;;;;;;14.45;8.02;;;;;;;26.55;49.25;100800.69;15801452;28;20310;-51
2023/09/12 08:14:45;;;;;;;17.98;7.45;;;;;;;26.58;48.28;100794.53;15805938;28;20164;-52
2023/09/12 08:22:19;;;;;;;16.17;6.47;;;;;;;27.52;46.92;100798.75;15863928;28;20113;-52
2023/09/12 08:29:54;;;;;;;19.17;6.80;;;;;;;28.28;46.09;100786.38;15792671;22;20051;-50
2023/09/12 08:37:28;;;;;;;15.68;6.55;;;;;;;28.68;44.13;100792.47;15721403;28;20039;-51
2023/09/12 08:45:04;;;;;;;19.08;6.57;;;;;;;29.47;42.70;100802.78;15680108;28;20119;-48
2023/09/12 08:52:38;;;;;;;15.45;5.85;;;;;;;29.55;41.94;100808.63;15680475;28;20419;-50
2023/09/12 09:00:14;;;;;;;21.77;5.60;;;;;;;29.78;41.81;100815.44;15678925;28;20421;-51
2023/09/12 09:07:49;;;;;;;18.85;6.03;;;;;;;29.91;42.65;100819.88;15678297;28;20089;-52
2023/09/12 09:15:25;;;;;;;26.45;6.38;;;;;;;28.64;44.38;100839.28;15712513;28;20033;-53
2023/09/12 09:23:01;;;;;;;16.52;6.57;;;;;;;28.95;44.36;100857.53;15740008;28;20447;-51
2023/09/12 09:30:42;;;;;;;26.90;8.07;;;;;;;28.05;46.50;100865.81;15739519;28;20045;-50
2023/09/12 09:38:20;;;;;;;21.17;7.88;;;;;;;28.59;46.08;100850.50;15679605;28;20044;-47
2023/09/12 09:45:55;;;;;;;20.60;8.55;;;;;;;28.56;46.06;100861.38;15676697;28;20041;-51
2023/09/12 09:53:32;;;;;;;26.38;9.10;;;;;;;28.79;44.47;100853.69;15739001;28;20032;-53
2023/09/12 10:01:08;;;;;;;21.13;7.88;;;;;;;29.59;43.56;100835.25;15736812;28;20064;-52
2023/09/12 10:08:44;;;;;;;16.33;7.38;;;;;;;30.48;41.22;100821.13;15738971;28;20044;-54
2023/09/12 10:16:18;;;;;;;30.88;8.65;;;;;;;30.35;40.18;100808.41;15720101;28;20036;-52
2023/09/12 10:23:54;;;;;;;22.42;7.78;;;;;;;30.56;39.71;100798.06;15738251;28;20039;-51
2023/09/12 10:31:28;;;;;;;20.45;7.32;;;;;;;30.58;39.47;100798.53;15683698;28;20029;-51
2023/09/12 10:39:05;;;;;;;25.25;7.55;;;;;;;31.60;38.32;100801.41;15675067;28;20106;-53
2023/09/12 10:46:40;;;;;;;22.20;7.55;;;;;;;31.65;38.57;100810.28;15674910;28;20044;-49
2023/09/12 10:54:16;;;;;;;18.75;7.28;;;;;;;30.78;39.13;100809.88;15657305;28;20491;-49
2023/09/12 11:01:49;;;;;;;17.38;6.72;;;;;;;32.30;37.13;100803.81;15674463;28;20052;-52
2023/09/12 11:09:25;;;;;;;12.07;5.30;;;;;;;32.30;36.55;100801.03;15678762;28;20280;-51
2023/09/12 11:17:23;;;;;;;14.32;4.78;;;;;;;31.25;38.65;100791.63;15733269;28;20033;-54
2023/09/12 11:24:58;;;;;;;11.77;5.00;;;;;;;31.99;38.26;100789.50;15747541;28;20051;-49
2023/09/12 11:32:33;;;;;;;18.45;5.60;;;;;;;31.61;37.22;100789.94;15747748;28;20047;-55
2023/09/12 11:40:23;;;;;;;12.75;5.18;;;;;;;31.25;38.41;100788.06;15746517;28;20049;-53
2023/09/12 11:47:56;;;;;;;11.52;5.30;;;;;;;31.55;38.26;100785.81;15745144;28;20047;-50
2023/09/12 11:55:33;;;;;;;13.43;5.28;;;;;;;31.02;39.75;100795.25;15744964;28;20072;-52
2023/09/12 12:03:07;;;;;;;11.20;5.30;;;;;;;31.98;37.03;100790.66;15744628;28;20111;-52
2023/09/12 12:10:42;;;;;;;12.90;5.68;;;;;;;32.09;37.57;100790.97;15744145;28;20477;-53
2023/09/12 12:18:16;;;;;;;13.73;5.07;;;;;;;32.42;36.47;100790.69;15684475;28;20049;-50
2023/09/12 12:25:51;;;;;;;11.88;5.07;;;;;;;33.62;34.36;100788.41;15680919;28;20128;-50
2023/09/12 12:33:24;;;;;;;11.13;5.03;;;;;;;34.22;33.46;100780.44;15681028;28;20102;-52
2023/09/12 12:40:58;;;;;;;11.68;5.30;;;;;;;33.60;34.44;100776.00;15707767;28;20428;-49
2023/09/12 12:48:32;;;;;;;14.48;5.68;;;;;;;34.18;34.38;100768.44;15737723;28;20037;-50
2023/09/12 12:56:06;;;;;;;11.00;4.70;;;;;;;34.78;33.31;100767.88;15691001;28;20459;-52
2023/09/12 13:03:41;;;;;;;21.23;5.50;;;;;;;34.81;30.27;100761.56;15678743;28;20043;-51
2023/09/12 13:11:16;;;;;;;13.50;5.13;;;;;;;35.22;30.57;100743.06;15683891;28;20417;-52
2023/09/12 13:18:49;;;;;;;13.98;5.00;;;;;;;33.84;31.81;100725.56;15690735;28;20040;-51
2023/09/12 13:26:23;;;;;;;14.15;4.88;;;;;;;34.50;30.88;100724.41;15691789;28;20490;-53
2023/09/12 13:33:58;;;;;;;14.50;5.03;;;;;;;35.04;30.35;100722.47;15689861;28;20051;-53
2023/09/12 13:41:33;;;;;;;17.38;5.35;;;;;;;35.33;29.69;100722.84;15710771;28;20529;-51
2023/09/12 13:49:06;;;;;;;15.73;5.07;;;;;;;34.17;32.81;100715.84;15692840;28;20079;-49
2023/09/12 13:56:40;;;;;;;16.40;5.40;;;;;;;33.50;33.21;100722.53;15691632;28;20048;-51
2023/09/12 14:04:14;;;;;;;18.15;5.38;;;;;;;32.38;35.09;100719.53;15687169;28;20123;-53
2023/09/12 14:11:49;;;;;;;22.70;5.68;;;;;;;31.32;37.38;100727.28;15694738;28;20106;-50
2023/09/12 14:19:22;;;;;;;18.27;5.10;;;;;;;30.89;37.35;100730.69;15734941;28;20051;-51
2023/09/12 14:26:56;;;;;;;25.20;5.43;;;;;;;31.03;39.50;100736.66;15713625;28;20116;-49
2023/09/12 14:34:32;;;;;;;13.82;5.82;;;;;;;30.16;40.44;100748.81;15675959;28;20037;-52
2023/09/12 14:42:08;;;;;;;12.90;4.40;;;;;;;29.15;42.89;100767.56;15693074;28;20088;-52
2023/09/12 14:49:41;;;;;;;13.55;3.60;;;;;;;28.37;46.06;100776.97;15699912;28;20561;-48
2023/09/12 14:57:16;;;;;;;7.80;3.30;;;;;;;27.24;49.40;100778.94;15686183;28;20041;-52
2023/09/12 15:04:49;;;;;;;9.43;3.40;;;;;;;27.11;49.52;100779.88;15686703;28;20518;-53
2023/09/12 15:12:24;;;;;;;6.72;3.15;;;;;;;27.32;49.33;100766.28;15687476;28;20047;-51
2023/09/12 15:19:57;;;;;;;9.68;3.20;;;;;;;27.44;48.74;100758.19;15703975;28;20063;-53
2023/09/12 15:27:34;;;;;;;8.25;3.40;;;;;;;27.53;48.45;100766.47;15692844;28;20074;-51
2023/09/12 15:35:10;;;;;;;6.55;3.58;;;;;;;26.84;49.55;100765.16;15684349;28;20529;-50
2023/09/12 15:42:44;;;;;;;4.10;3.25;;;;;;;26.80;50.23;100753.16;15697998;28;20040;-50
2023/09/12 15:50:18;;;;;;;5.07;3.15;;;;;;;27.03;49.23;100753.88;15699676;28;20056;-51
2023/09/12 15:57:53;;;;;;;5.15;3.00;;;;;;;26.96;49.08;100735.06;15682257;28;20045;-50
2023/09/12 16:05:27;;;;;;;4.78;2.63;;;;;;;27.00;49.28;100738.00;15682731;28;20040;-55
2023/09/12 16:13:02;;;;;;;6.88;3.15;;;;;;;27.41;48.82;100723.78;15679595;28;20038;-51
2023/09/12 16:20:37;;;;;;;5.43;2.53;;;;;;;27.55;48.64;100725.59;15743844;28;20102;-54
2023/09/12 16:28:12;;;;;;;4.20;3.00;;;;;;;27.05;48.64;100731.53;15743571;28;20044;-56
2023/09/12 16:35:45;;;;;;;3.05;2.42;;;;;;;27.30;48.28;100739.03;15742731;28;20028;-52
2023/09/12 16:43:19;;;;;;;3.53;2.28;;;;;;;27.18;47.36;100749.88;15742160;28;20055;-50
2023/09/12 16:50:53;;;;;;;8.00;2.50;;;;;;;26.77;47.73;100747.50;15741888;28;20501;-50
2023/09/12 16:58:27;;;;;;;4.70;2.10;;;;;;;26.96;47.25;100748.84;15741478;28;20513;-53
2023/09/12 17:06:01;;;;;;;3.22;1.75;;;;;;;26.81;47.08;100752.03;15740841;28;20047;-48
2023/09/12 17:13:36;;;;;;;6.03;2.17;;;;;;;26.75;47.33;100753.31;15730552;28;20401;-52
2023/09/12 17:21:08;;;;;;;5.95;2.33;;;;;;;26.37;48.00;100762.03;15740225;28;20058;-53
2023/09/12 17:28:43;;;;;;;2.22;1.63;;;;;;;25.82;48.41;100762.31;15739883;28;20102;-51
2023/09/12 17:36:16;;;;;;;4.50;2.17;;;;;;;26.21;47.98;100769.06;15739863;28;20071;-49
2023/09/12 17:43:50;;;;;;;4.47;2.42;;;;;;;26.13;48.19;100778.06;15683636;28;20033;-51
2023/09/12 17:51:29;;;;;;;3.90;2.60;;;;;;;25.72;49.77;100772.72;15690111;28;20102;-51
2023/09/12 17:59:03;;;;;;;5.63;2.45;;;;;;;25.57;50.25;100777.44;15676633;28;20433;-51
2023/09/12 18:06:37;;;;;;;6.20;2.75;;;;;;;25.35;50.29;100780.97;15717247;28;20047;-55
2023/09/12 18:14:12;;;;;;;5.30;2.70;;;;;;;25.33;50.38;100785.97;15701073;28;20056;-50
2023/09/12 18:21:45;;;;;;;3.33;2.50;;;;;;;25.15;51.42;100792.41;15748109;28;20127;-50
2023/09/12 18:29:22;;;;;;;5.22;2.88;;;;;;;24.82;52.06;100788.91;15698351;28;20033;-51
2023/09/12 18:36:55;;;;;;;5.78;2.97;;;;;;;24.60;53.09;100793.16;15675578;28;20095;-52
2023/09/12 18:44:30;;;;;;;4.78;3.03;;;;;;;24.64;52.72;100796.94;15688896;28;20454;-52
2023/09/12 18:52:03;;;;;;;7.85;2.92;;;;;;;24.54;53.21;100810.03;15680738;28;20106;-48
2023/09/12 18:59:37;;;;;;;7.70;3.50;;;;;;;24.33;53.64;100812.28;15695062;28;20072;-47
2023/09/12 19:07:11;;;;;;;5.40;3.78;;;;;;;24.41;53.45;100819.84;15701856;28;20053;-50
2023/09/12 19:14:46;;;;;;;7.68;3.47;;;;;;;24.25;54.13;100816.53;15714926;28;20493;-49
2023/09/12 19:22:19;;;;;;;5.95;3.50;;;;;;;23.79;55.76;100809.03;15740054;28;20059;-48
2023/09/12 19:29:55;;;;;;;6.80;3.67;;;;;;;23.77;55.33;100800.28;15738485;28;20098;-49
2023/09/12 19:37:27;;;;;;;5.50;3.80;;;;;;;23.65;55.86;100808.97;15684463;28;20052;-46
2023/09/12 19:45:02;;;;;;;5.43;3.40;;;;;;;23.59;55.88;100812.84;15695914;28;20045;-46
2023/09/12 19:52:35;;;;;;;7.38;3.33;;;;;;;23.69;55.28;100800.97;15737641;28;20040;-44
2023/09/12 20:00:10;;;;;;;7.28;3.58;;;;;;;23.37;56.07;100791.50;15722022;28;20052;-47
2023/09/12 20:07:43;;;;;;;54.60;34.13;;;;;;;23.41;55.73;100784.34;15682726;28;20075;-48
2023/09/12 20:15:20;;;;;;;6.80;5.30;;;;;;;23.56;55.50;100798.94;15716309;28;20041;-46
2023/09/12 20:22:53;;;;;;;6.35;4.30;;;;;;;23.45;56.44;100792.75;15744240;28;20050;-47
2023/09/12 20:30:27;;;;;;;5.78;3.92;;;;;;;23.33;57.26;100795.94;15720054;28;20399;-51
2023/09/12 20:38:00;;;;;;;6.50;3.65;;;;;;;23.09;58.12;100797.91;15680466;28;20069;-47
2023/09/12 20:45:35;;;;;;;4.93;3.50;;;;;;;23.03;58.52;100799.88;15741539;28;20044;-46
2023/09/12 20:53:10;;;;;;;8.70;3.83;;;;;;;22.60;59.43;100794.28;15732307;28;20098;-49
2023/09/12 21:00:45;;;;;;;5.85;4.03;;;;;;;22.84;58.84;100791.56;15679151;28;20044;-49
2023/09/12 21:08:18;;;;;;;5.78;3.78;;;;;;;22.99;58.13;100781.59;15678627;28;20063;-50
2023/09/12 21:15:53;;;;;;;5.90;3.58;;;;;;;22.87;58.57;100782.78;15716865;28;20041;-50
2023/09/12 21:23:26;;;;;;;4.88;3.90;;;;;;;22.64;59.01;100773.47;15712649;28;20639;-48
2023/09/12 21:31:00;;;;;;;6.38;3.80;;;;;;;22.48;60.07;100774.75;15681783;28;20048;-48
2023/09/12 21:38:35;;;;;;;5.93;4.28;;;;;;;22.17;60.81;100781.59;15731078;28;20048;-47
2023/09/12 21:46:09;;;;;;;5.03;3.80;;;;;;;22.09;61.38;100786.53;15738558;28;20105;-49
2023/09/12 21:53:42;;;;;;;5.68;3.83;;;;;;;21.92;61.32;100772.47;15700023;28;20041;-49
2023/09/12 22:01:16;;;;;;;7.03;4.13;;;;;;;21.72;62.09;100767.94;15685178;28;20049;-47
2023/09/12 22:08:50;;;;;;;4.57;3.80;;;;;;;21.63;62.30;100756.00;15692548;28;20082;-48
2023/09/12 22:16:43;;;;;;;6.80;3.83;;;;;;;21.49;63.04;100753.06;15684551;28;20520;-47
2023/09/12 22:24:17;;;;;;;5.63;4.00;;;;;;;21.40;63.35;100749.31;15678436;28;20045;-48
2023/09/12 22:31:51;;;;;;;5.63;4.38;;;;;;;21.31;63.64;100762.75;15691006;28;20045;-47
2023/09/12 22:39:24;;;;;;;8.15;4.22;;;;;;;21.26;63.39;100751.00;15675922;28;20049;-48
2023/09/12 22:46:59;;;;;;;8.52;4.80;;;;;;;21.09;63.99;100733.09;15686206;28;20076;-48
2023/09/12 22:54:32;;;;;;;6.15;4.65;;;;;;;21.03;64.33;100727.91;15675069;28;20136;-50
2023/09/12 23:02:06;;;;;;;5.85;4.85;;;;;;;20.95;64.73;100699.31;15657129;28;20410;-48
2023/09/12 23:09:40;;;;;;;6.95;4.68;;;;;;;20.99;64.76;100694.13;15685606;28;20037;-47
2023/09/12 23:17:14;;;;;;;6.30;4.65;;;;;;;20.86;65.29;100673.72;15706516;28;20045;-48
2023/09/12 23:24:47;;;;;;;7.00;4.70;;;;;;;20.85;65.19;100677.53;15695578;28;20037;-49
2023/09/12 23:32:21;;;;;;;7.70;4.72;;;;;;;20.83;65.91;100666.88;15701904;28;20040;-48
2023/09/12 23:39:54;;;;;;;6.07;4.65;;;;;;;20.96;65.19;100665.47;15698312;28;20043;-48
2023/09/12 23:47:29;;;;;;;7.63;4.97;;;;;;;20.95;65.12;100657.56;15694845;28;20041;-47
2023/09/12 23:55:05;;;;;;;5.45;4.50;;;;;;;21.15;64.86;100646.53;15693190;28;20128;-47
